Terminal Aerodrome Forecast
Issued by NWS

Home | Current Version | Previous Version | Text Only | Print | Product List | Glossary On
Versions: 1 2 3 4 5 6 7 8 9 10 11 12 13 14 15 16
000
FTUS45 KSLC 240533
TAFPVU
TAF
KPVU 240533Z 2406/2506 15011KT P6SM VCSH SCT100 BKN120
     FM241900 19007KT P6SM SCT100 BKN120
     FM242300 17010KT P6SM VCSH SCT080 BKN120
     FM250200 14008KT P6SM -SHRA BKN080=

USA.gov is the U.S. government's official web portal to all federal, state and local government web resources and services.